createdAt,value
2019-03-26T00:00:09.508Z,9.08
2019-03-26T00:02:38.776Z,10.28
2019-03-26T00:05:08.055Z,8.15
2019-03-26T00:07:37.318Z,8.60
2019-03-26T00:10:06.648Z,8.63
2019-03-26T00:12:35.908Z,9.50
2019-03-26T00:15:06.518Z,8.78
2019-03-26T00:17:35.777Z,9.95
2019-03-26T00:20:06.557Z,8.50
2019-03-26T00:22:35.821Z,7.70
2019-03-26T00:25:06.197Z,10.08
2019-03-26T00:27:35.878Z,8.70
2019-03-26T00:30:06.061Z,10.65
2019-03-26T00:32:35.599Z,9.03
2019-03-26T00:35:05.130Z,7.60
2019-03-26T00:37:34.396Z,9.65
2019-03-26T00:40:04.241Z,7.08
2019-03-26T00:42:33.495Z,9.15
2019-03-26T00:45:02.773Z,10.85
2019-03-26T00:47:32.405Z,9.48
2019-03-26T00:50:01.691Z,7.42
2019-03-26T00:52:31.012Z,12.90
2019-03-26T00:55:00.344Z,10.25
2019-03-26T00:57:29.546Z,10.00
2019-03-26T00:59:58.831Z,12.35
2019-03-26T01:02:28.099Z,9.65
2019-03-26T01:04:57.350Z,11.97
2019-03-26T01:07:26.627Z,13.18
2019-03-26T01:09:55.891Z,13.18
2019-03-26T01:12:25.187Z,16.67
2019-03-26T01:14:54.452Z,17.10
2019-03-26T01:17:23.728Z,13.65
2019-03-26T01:19:52.990Z,10.58
2019-03-26T01:22:22.263Z,14.13
2019-03-26T01:24:51.524Z,15.28
2019-03-26T01:27:20.799Z,16.30
2019-03-26T01:29:50.062Z,15.28
2019-03-26T01:32:19.337Z,12.15
2019-03-26T01:34:48.601Z,17.60
2019-03-26T01:37:17.938Z,16.05
2019-03-26T01:39:47.211Z,16.35
2019-03-26T01:42:16.482Z,17.32
2019-03-26T01:44:45.827Z,16.25
2019-03-26T01:47:15.036Z,17.48
2019-03-26T01:49:44.294Z,15.25
2019-03-26T01:52:13.574Z,17.57
2019-03-26T01:54:42.837Z,18.00
2019-03-26T01:57:12.120Z,17.00
2019-03-26T01:59:41.383Z,16.30
2019-03-26T02:02:10.660Z,21.15
2019-03-26T02:04:39.922Z,16.73
2019-03-26T02:07:09.197Z,21.42
2019-03-26T02:09:38.459Z,16.52
2019-03-26T02:12:07.745Z,18.77
2019-03-26T02:14:37.051Z,17.70
2019-03-26T02:17:06.329Z,17.15
2019-03-26T02:19:35.607Z,15.25
2019-03-26T02:22:04.883Z,15.18
2019-03-26T02:24:34.427Z,17.50
2019-03-26T02:27:03.705Z,16.30
2019-03-26T02:29:33.236Z,15.28
2019-03-26T02:32:02.760Z,18.37
2019-03-26T02:34:32.023Z,18.15
2019-03-26T02:37:01.297Z,14.70
2019-03-26T02:39:30.852Z,16.07
2019-03-26T02:42:00.132Z,16.85
2019-03-26T02:44:29.401Z,18.62
2019-03-26T02:46:58.667Z,13.45
2019-03-26T02:49:28.183Z,17.17
2019-03-26T02:51:57.758Z,15.78
2019-03-26T02:54:27.033Z,22.75
2019-03-26T02:56:56.301Z,17.98
2019-03-26T02:59:25.559Z,18.87
2019-03-26T03:01:54.892Z,17.02
2019-03-26T03:04:24.156Z,15.32
2019-03-26T03:06:53.683Z,17.92
2019-03-26T03:09:22.941Z,17.50
2019-03-26T03:11:52.202Z,17.92
2019-03-26T03:14:21.771Z,18.05
2019-03-26T03:16:51.035Z,16.27
2019-03-26T03:19:20.304Z,13.70
2019-03-26T03:21:49.570Z,14.85
2019-03-26T03:24:18.843Z,14.60
2019-03-26T03:26:48.102Z,14.13
2019-03-26T03:29:17.377Z,15.85
2019-03-26T03:31:46.651Z,19.70
2019-03-26T03:34:15.916Z,17.62
2019-03-26T03:36:45.175Z,14.60
2019-03-26T03:39:14.451Z,19.67
2019-03-26T03:41:43.709Z,16.87
2019-03-26T03:44:13.040Z,15.25
2019-03-26T03:46:43.583Z,16.70
2019-03-26T03:49:13.401Z,14.85
2019-03-26T03:51:44.768Z,18.48
2019-03-26T03:54:14.219Z,15.28
2019-03-26T03:56:44.421Z,14.53
2019-03-26T03:59:13.831Z,15.98
2019-03-26T04:01:43.089Z,12.65
2019-03-26T04:04:12.363Z,16.42
2019-03-26T04:06:41.886Z,16.48
2019-03-26T04:09:11.164Z,17.65
2019-03-26T04:11:40.428Z,15.80
2019-03-26T04:14:09.711Z,14.18
2019-03-26T04:16:39.035Z,18.02
2019-03-26T04:19:08.603Z,13.85
2019-03-26T04:21:38.207Z,20.37
2019-03-26T04:24:07.494Z,20.15
2019-03-26T04:26:36.746Z,19.30
2019-03-26T04:29:06.091Z,17.87
2019-03-26T04:31:35.607Z,18.67
2019-03-26T04:34:05.317Z,20.30
2019-03-26T04:36:34.579Z,21.12
2019-03-26T04:39:04.491Z,16.17
2019-03-26T04:41:33.778Z,20.45
2019-03-26T04:44:03.340Z,19.95
2019-03-26T04:46:32.599Z,16.40
2019-03-26T04:49:01.881Z,19.82
2019-03-26T04:51:31.142Z,17.12
2019-03-26T04:54:00.416Z,22.00
2019-03-26T04:56:29.673Z,19.48
2019-03-26T04:58:59.247Z,18.27
2019-03-26T05:01:28.522Z,16.52
2019-03-26T05:03:57.799Z,17.67
2019-03-26T05:06:37.368Z,22.70
2019-03-26T05:08:58.066Z,20.65
2019-03-26T05:11:27.332Z,17.77
2019-03-26T05:13:56.607Z,17.98
2019-03-26T05:16:25.871Z,19.42
2019-03-26T05:18:55.387Z,21.20
2019-03-26T05:21:24.663Z,20.02
2019-03-26T05:23:53.928Z,18.25
2019-03-26T05:26:23.201Z,17.48
2019-03-26T05:28:52.461Z,23.10
2019-03-26T05:31:21.746Z,19.15
2019-03-26T05:33:51.012Z,14.95
2019-03-26T05:36:20.283Z,18.10
2019-03-26T05:38:49.549Z,22.90
2019-03-26T05:41:18.822Z,17.70
2019-03-26T05:43:48.082Z,19.45
2019-03-26T05:46:17.690Z,20.55
2019-03-26T05:48:47.299Z,20.57
2019-03-26T05:51:16.575Z,14.65
2019-03-26T05:53:46.096Z,15.60
2019-03-26T05:56:15.371Z,14.38
2019-03-26T05:58:44.636Z,18.98
2019-03-26T06:01:13.911Z,19.87
2019-03-26T06:03:43.182Z,18.90
2019-03-26T06:06:12.473Z,18.50
2019-03-26T06:08:41.726Z,18.55
2019-03-26T06:11:10.994Z,14.35
2019-03-26T06:13:40.254Z,15.48
2019-03-26T06:16:09.525Z,13.38
2019-03-26T06:18:39.117Z,17.82
2019-03-26T06:21:08.399Z,16.35
2019-03-26T06:23:37.656Z,16.30
2019-03-26T06:26:07.238Z,13.50
2019-03-26T06:28:36.824Z,19.05
2019-03-26T06:31:06.094Z,16.32
2019-03-26T06:33:35.360Z,18.10
2019-03-26T06:36:04.637Z,19.75
2019-03-26T06:38:34.236Z,22.93
2019-03-26T06:41:04.348Z,21.30
2019-03-26T06:43:33.614Z,16.73
2019-03-26T06:46:02.891Z,17.85
2019-03-26T06:48:32.457Z,18.48
2019-03-26T06:51:01.731Z,19.48
2019-03-26T06:53:30.995Z,20.60
2019-03-26T06:56:00.275Z,21.05
2019-03-26T06:58:29.549Z,22.22
2019-03-26T07:00:59.295Z,18.98
2019-03-26T07:03:28.569Z,20.27
2019-03-26T07:05:57.842Z,22.00
2019-03-26T07:08:27.112Z,24.00
2019-03-26T07:10:56.681Z,20.68
2019-03-26T07:13:25.948Z,17.23
2019-03-26T07:15:55.484Z,21.20
2019-03-26T07:18:24.752Z,18.55
2019-03-26T07:20:54.032Z,18.80
2019-03-26T07:23:23.300Z,20.90
2019-03-26T07:25:52.649Z,17.87
2019-03-26T07:28:21.917Z,18.48
2019-03-26T07:30:51.193Z,19.20
2019-03-26T07:33:20.463Z,21.33
2019-03-26T07:35:49.746Z,20.85
2019-03-26T07:38:19.014Z,16.93
2019-03-26T07:40:48.293Z,21.80
2019-03-26T07:43:17.565Z,19.05
2019-03-26T07:45:46.844Z,20.02
2019-03-26T07:48:16.390Z,19.48
2019-03-26T07:50:45.677Z,15.85
2019-03-26T07:53:14.943Z,17.32
2019-03-26T07:55:44.219Z,16.82
2019-03-26T07:58:13.493Z,14.55
2019-03-26T08:00:42.769Z,14.40
2019-03-26T08:03:12.040Z,21.25
2019-03-26T08:05:41.592Z,13.83
2019-03-26T08:08:11.196Z,13.88
2019-03-26T08:10:40.802Z,10.78
2019-03-26T08:13:10.162Z,13.13
2019-03-26T08:15:39.438Z,14.90
2019-03-26T08:18:08.940Z,12.33
2019-03-26T08:20:38.287Z,11.50
2019-03-26T08:23:07.552Z,13.95
2019-03-26T08:25:36.830Z,16.95
2019-03-26T08:28:06.105Z,15.65
2019-03-26T08:30:35.778Z,8.98
2019-03-26T08:33:05.348Z,11.70
2019-03-26T08:35:34.633Z,12.57
2019-03-26T08:38:12.369Z,12.88
2019-03-26T08:40:34.906Z,11.53
2019-03-26T08:43:04.181Z,11.50
2019-03-26T08:45:33.450Z,15.73
2019-03-26T08:48:02.730Z,15.80
2019-03-26T08:50:32.277Z,11.33
2019-03-26T08:53:01.556Z,12.50
2019-03-26T08:55:30.835Z,20.30
2019-03-26T08:58:00.114Z,12.20
2019-03-26T09:00:31.933Z,11.73
2019-03-26T09:03:00.389Z,13.50
2019-03-26T09:05:29.665Z,15.80
2019-03-26T09:07:58.947Z,17.03
2019-03-26T09:10:28.521Z,8.80
2019-03-26T09:12:57.807Z,10.67
2019-03-26T09:15:27.075Z,11.57
2019-03-26T09:17:56.361Z,10.70
2019-03-26T09:20:25.638Z,10.57
2019-03-26T09:22:54.921Z,10.27
2019-03-26T09:25:24.196Z,9.90
2019-03-26T09:27:53.498Z,9.77
2019-03-26T09:30:23.028Z,11.80
2019-03-26T09:32:52.333Z,13.60
2019-03-26T09:35:21.586Z,10.77
2019-03-26T09:37:50.868Z,12.70
2019-03-26T09:40:20.430Z,10.33
2019-03-26T09:42:49.960Z,12.07
2019-03-26T09:45:19.239Z,12.33
2019-03-26T09:47:48.525Z,14.87
2019-03-26T09:50:22.749Z,9.90
2019-03-26T09:52:52.023Z,9.57
2019-03-26T09:55:21.560Z,11.73
2019-03-26T09:57:50.845Z,15.03
2019-03-26T10:00:20.208Z,11.63
2019-03-26T10:02:49.495Z,11.83
2019-03-26T10:05:18.754Z,11.77
2019-03-26T10:07:48.035Z,15.43
2019-03-26T10:10:17.379Z,13.00
2019-03-26T10:12:46.661Z,14.23
2019-03-26T10:15:16.075Z,11.30
2019-03-26T10:17:45.690Z,10.70
2019-03-26T10:20:16.123Z,9.73
2019-03-26T10:22:45.708Z,11.30
2019-03-26T10:25:14.982Z,10.77
2019-03-26T10:27:44.264Z,11.03
2019-03-26T10:30:16.826Z,13.67
2019-03-26T10:32:46.108Z,9.10
2019-03-26T10:35:15.450Z,11.00
2019-03-26T10:37:44.726Z,8.87
2019-03-26T10:40:18.708Z,9.90
2019-03-26T10:42:48.002Z,12.43
2019-03-26T10:45:17.281Z,12.30
2019-03-26T10:47:46.552Z,10.50
2019-03-26T10:50:15.836Z,7.93
2019-03-26T10:52:45.112Z,8.30
2019-03-26T10:55:14.394Z,8.13
2019-03-26T10:57:44.013Z,9.30
2019-03-26T11:00:13.708Z,7.80
2019-03-26T11:02:42.981Z,8.23
2019-03-26T11:05:12.603Z,7.80
2019-03-26T11:07:42.820Z,7.10
2019-03-26T11:10:12.362Z,8.00
2019-03-26T11:12:41.635Z,7.60
2019-03-26T11:15:13.053Z,7.10
2019-03-26T11:17:42.610Z,8.83
2019-03-26T11:20:12.131Z,8.40
2019-03-26T11:22:41.538Z,8.53
2019-03-26T11:25:12.341Z,6.17
2019-03-26T11:27:41.677Z,5.13
2019-03-26T11:30:11.568Z,5.90
2019-03-26T11:32:40.844Z,6.43
2019-03-26T11:35:10.560Z,5.80
2019-03-26T11:37:40.315Z,5.43
2019-03-26T11:40:10.854Z,6.23
2019-03-26T11:42:40.193Z,5.07
2019-03-26T11:45:11.335Z,6.03
2019-03-26T11:47:40.875Z,7.30
2019-03-26T11:50:10.953Z,5.87
2019-03-26T11:52:40.753Z,4.57
2019-03-26T11:55:11.374Z,5.37
2019-03-26T11:57:40.643Z,4.00
2019-03-26T12:00:14.563Z,3.57
2019-03-26T12:02:43.823Z,3.83
2019-03-26T12:05:14.244Z,3.40
2019-03-26T12:07:43.509Z,3.70
2019-03-26T12:10:13.333Z,3.37
2019-03-26T12:12:42.597Z,3.57
2019-03-26T12:15:12.795Z,4.17
2019-03-26T12:17:42.064Z,3.77
2019-03-26T12:20:11.810Z,4.00
2019-03-26T12:22:41.077Z,4.57
2019-03-26T12:25:13.274Z,3.83
2019-03-26T12:27:42.540Z,3.63
2019-03-26T12:30:12.526Z,3.80
2019-03-26T12:32:41.901Z,4.73
2019-03-26T12:35:15.887Z,4.60
2019-03-26T12:37:45.407Z,4.03
2019-03-26T12:40:14.692Z,4.93
2019-03-26T12:42:43.961Z,5.60
2019-03-26T12:45:13.306Z,4.50
2019-03-26T12:47:42.575Z,4.40
2019-03-26T12:50:12.522Z,3.80
2019-03-26T12:52:42.129Z,5.20
2019-03-26T12:55:11.406Z,3.83
2019-03-26T12:57:40.673Z,4.20
2019-03-26T13:00:11.164Z,5.67
2019-03-26T13:02:40.425Z,6.03
2019-03-26T13:05:09.978Z,4.83
2019-03-26T13:07:39.242Z,4.73
2019-03-26T13:10:13.846Z,4.03
2019-03-26T13:12:40.943Z,4.03
2019-03-26T13:15:10.287Z,3.40
2019-03-26T13:17:39.566Z,5.27
2019-03-26T13:20:09.007Z,5.90
2019-03-26T13:22:38.350Z,4.90
2019-03-26T13:25:08.936Z,4.13
2019-03-26T13:27:38.482Z,4.23
2019-03-26T13:30:08.971Z,6.03
2019-03-26T13:32:38.257Z,3.13
2019-03-26T13:35:08.069Z,4.30
2019-03-26T13:37:37.424Z,4.50
2019-03-26T13:40:07.123Z,3.33
2019-03-26T13:42:36.404Z,4.90
2019-03-26T13:45:07.486Z,4.10
2019-03-26T13:47:36.764Z,3.37
2019-03-26T13:50:08.645Z,5.03
2019-03-26T13:52:37.933Z,4.63
2019-03-26T13:55:08.831Z,4.60
2019-03-26T13:57:38.114Z,5.07
2019-03-26T14:00:13.055Z,5.47
2019-03-26T14:02:42.340Z,4.07
2019-03-26T14:05:26.971Z,5.27
2019-03-26T14:07:56.257Z,5.13
2019-03-26T14:10:25.591Z,4.40
2019-03-26T14:12:54.941Z,6.07
2019-03-26T14:15:24.473Z,5.13
2019-03-26T14:17:53.750Z,6.73
2019-03-26T14:20:23.157Z,5.77
2019-03-26T14:22:52.443Z,9.80
2019-03-26T14:25:21.707Z,6.63
2019-03-26T14:27:51.003Z,9.87
2019-03-26T14:30:39.060Z,6.77
2019-03-26T14:33:08.799Z,6.93
2019-03-26T14:35:39.068Z,6.70
2019-03-26T14:38:08.354Z,7.40
2019-03-26T14:40:37.675Z,7.93
2019-03-26T14:43:07.356Z,7.03
2019-03-26T14:45:36.690Z,8.07
2019-03-26T14:48:06.138Z,6.20
2019-03-26T14:50:35.473Z,6.80
2019-03-26T14:53:05.076Z,4.97
2019-03-26T14:55:34.343Z,4.57
2019-03-26T14:58:03.619Z,4.13
2019-03-26T15:00:33.050Z,4.97
2019-03-26T15:03:02.318Z,5.47
2019-03-26T15:05:31.587Z,6.00
2019-03-26T15:08:00.868Z,5.03
2019-03-26T15:10:30.135Z,7.93
2019-03-26T15:12:59.413Z,6.70
2019-03-26T15:15:28.683Z,8.40
2019-03-26T15:17:58.292Z,6.80
2019-03-26T15:20:27.557Z,7.00
2019-03-26T15:22:58.215Z,5.80
2019-03-26T15:25:27.578Z,7.30
2019-03-26T15:27:56.846Z,6.00
2019-03-26T15:30:26.113Z,6.63
2019-03-26T15:32:55.723Z,5.60
2019-03-26T15:35:24.985Z,5.33
2019-03-26T15:37:54.293Z,5.40
2019-03-26T15:40:23.523Z,5.30
2019-03-26T15:42:52.808Z,5.00
2019-03-26T15:45:22.448Z,5.73
2019-03-26T15:47:51.723Z,4.83
2019-03-26T15:50:45.975Z,7.07
2019-03-26T15:53:15.892Z,7.90
2019-03-26T15:55:45.307Z,6.17
2019-03-26T15:58:14.570Z,6.73
2019-03-26T16:00:43.841Z,8.93
2019-03-26T16:03:13.134Z,10.93
2019-03-26T16:05:42.408Z,10.63
2019-03-26T16:08:11.684Z,12.47
2019-03-26T16:10:40.960Z,13.53
2019-03-26T16:13:10.244Z,16.50
2019-03-26T16:15:44.849Z,13.20
2019-03-26T16:18:10.668Z,14.00
2019-03-26T16:20:40.193Z,16.03
2019-03-26T16:23:09.468Z,14.13
2019-03-26T16:25:38.825Z,13.10
2019-03-26T16:28:08.097Z,11.80
2019-03-26T16:30:37.386Z,14.17
2019-03-26T16:33:06.650Z,16.97
2019-03-26T16:35:35.929Z,14.27
2019-03-26T16:38:05.343Z,16.13
2019-03-26T16:40:34.898Z,13.77
2019-03-26T16:43:04.181Z,16.13
2019-03-26T16:45:33.808Z,14.37
2019-03-26T16:48:03.076Z,11.50
2019-03-26T16:50:32.351Z,16.33
2019-03-26T16:53:01.633Z,15.00
2019-03-26T16:55:30.917Z,12.93
2019-03-26T16:58:00.181Z,14.10
2019-03-26T17:00:33.593Z,11.23
2019-03-26T17:03:02.933Z,12.70
2019-03-26T17:05:32.221Z,10.83
2019-03-26T17:08:01.568Z,14.97
2019-03-26T17:10:30.910Z,16.37
2019-03-26T17:13:00.350Z,17.90
2019-03-26T17:15:29.914Z,11.40
2019-03-26T17:17:59.348Z,12.93
2019-03-26T17:20:28.629Z,14.63
2019-03-26T17:22:58.433Z,13.40
2019-03-26T17:25:28.343Z,10.80
2019-03-26T17:27:57.955Z,7.60
2019-03-26T17:30:27.230Z,10.13
2019-03-26T17:32:56.762Z,11.53
2019-03-26T17:35:26.043Z,10.30
2019-03-26T17:38:00.022Z,12.60
2019-03-26T17:40:26.297Z,8.57
2019-03-26T17:42:55.562Z,8.20
2019-03-26T17:45:24.831Z,8.87
2019-03-26T17:47:54.109Z,11.60
2019-03-26T17:50:23.386Z,9.95
2019-03-26T17:52:52.660Z,7.20
2019-03-26T17:55:22.195Z,10.60
2019-03-26T17:57:51.459Z,10.30
2019-03-26T18:00:25.445Z,13.78
2019-03-26T18:02:54.720Z,10.53
2019-03-26T18:05:28.612Z,9.50
2019-03-26T18:07:58.549Z,11.22
2019-03-26T18:10:27.890Z,10.37
2019-03-26T18:12:57.441Z,8.85
2019-03-26T18:15:26.722Z,10.93
2019-03-26T18:17:55.987Z,8.40
2019-03-26T18:20:32.453Z,8.18
2019-03-26T18:22:56.268Z,13.68
2019-03-26T18:25:25.785Z,9.78
2019-03-26T18:27:55.399Z,10.95
2019-03-26T18:30:24.676Z,9.10
2019-03-26T18:32:53.943Z,8.48
2019-03-26T18:35:23.217Z,10.30
2019-03-26T18:37:52.752Z,10.20
2019-03-26T18:40:22.013Z,9.40
2019-03-26T18:42:51.341Z,12.70
2019-03-26T18:45:20.569Z,11.40
2019-03-26T18:47:49.863Z,11.68
2019-03-26T18:50:19.458Z,14.05
2019-03-26T18:52:48.740Z,11.15
2019-03-26T18:55:18.329Z,10.93
2019-03-26T18:57:47.608Z,10.85
2019-03-26T19:00:31.987Z,11.97
2019-03-26T19:03:01.406Z,10.95
2019-03-26T19:05:30.744Z,11.45
2019-03-26T19:08:00.386Z,17.00
2019-03-26T19:10:34.550Z,8.25
2019-03-26T19:13:03.900Z,10.30
2019-03-26T19:15:33.167Z,11.97
2019-03-26T19:18:02.450Z,12.07
2019-03-26T19:20:31.790Z,13.55
2019-03-26T19:23:01.408Z,15.00
2019-03-26T19:25:30.680Z,14.13
2019-03-26T19:27:59.958Z,18.40
2019-03-26T19:30:29.229Z,13.18
2019-03-26T19:32:58.506Z,14.90
2019-03-26T19:35:27.778Z,15.65
2019-03-26T19:37:57.055Z,13.28
2019-03-26T19:40:26.332Z,11.80
2019-03-26T19:42:55.606Z,13.62
2019-03-26T19:45:24.876Z,10.15
2019-03-26T19:47:54.150Z,12.25
2019-03-26T19:50:23.490Z,11.73
2019-03-26T19:52:52.863Z,12.98
2019-03-26T19:55:22.122Z,12.55
2019-03-26T19:57:51.401Z,10.65
2019-03-26T20:00:20.809Z,9.93
2019-03-26T20:02:50.089Z,13.83
2019-03-26T20:05:19.356Z,13.58
2019-03-26T20:07:48.633Z,14.65
2019-03-26T20:10:18.657Z,13.75
2019-03-26T20:12:48.059Z,14.18
2019-03-26T20:15:17.769Z,13.83
2019-03-26T20:17:47.048Z,17.67
2019-03-26T20:20:16.957Z,14.58
2019-03-26T20:22:46.302Z,12.75
2019-03-26T20:25:15.824Z,8.93
2019-03-26T20:27:45.097Z,13.35
2019-03-26T20:30:17.016Z,11.57
2019-03-26T20:32:46.290Z,15.27
2019-03-26T20:35:16.594Z,13.38
2019-03-26T20:37:45.872Z,12.43
2019-03-26T20:40:15.751Z,12.88
2019-03-26T20:42:45.027Z,12.28
2019-03-26T20:45:14.674Z,13.50
2019-03-26T20:47:43.880Z,15.18
2019-03-26T20:50:14.263Z,11.40
2019-03-26T20:52:43.535Z,14.77
2019-03-26T20:55:13.611Z,10.93
2019-03-26T20:57:43.218Z,16.93
2019-03-26T21:00:16.931Z,16.02
2019-03-26T21:02:46.209Z,14.20
2019-03-26T21:05:15.475Z,14.00
2019-03-26T21:07:47.736Z,17.80
2019-03-26T21:10:15.820Z,17.65
2019-03-26T21:12:45.102Z,12.87
2019-03-26T21:15:14.712Z,10.55
2019-03-26T21:17:43.993Z,12.53
2019-03-26T21:20:13.328Z,14.45
2019-03-26T21:22:42.611Z,12.90
2019-03-26T21:25:12.057Z,19.05
2019-03-26T21:27:41.339Z,11.83
2019-03-26T21:30:15.777Z,14.43
2019-03-26T21:32:44.793Z,16.20
2019-03-26T21:35:15.442Z,17.30
2019-03-26T21:37:44.710Z,13.32
2019-03-26T21:40:14.417Z,17.62
2019-03-26T21:42:43.696Z,14.50
2019-03-26T21:45:14.271Z,16.57
2019-03-26T21:47:43.875Z,14.95
2019-03-26T21:50:13.283Z,15.25
2019-03-26T21:52:42.554Z,17.30
2019-03-26T21:55:13.490Z,14.85
2019-03-26T21:57:42.856Z,13.88
2019-03-26T22:00:12.838Z,14.30
2019-03-26T22:02:42.110Z,14.25
2019-03-26T22:05:12.494Z,14.90
2019-03-26T22:07:41.759Z,14.15
2019-03-26T22:10:12.550Z,14.33
2019-03-26T22:12:41.817Z,19.95
2019-03-26T22:15:12.645Z,15.55
2019-03-26T22:17:41.913Z,16.65
2019-03-26T22:20:11.335Z,13.78
2019-03-26T22:22:40.599Z,15.23
2019-03-26T22:25:10.886Z,15.70
2019-03-26T22:27:40.155Z,17.02
2019-03-26T22:30:10.947Z,16.35
2019-03-26T22:32:40.212Z,15.18
2019-03-26T22:35:10.369Z,12.55
2019-03-26T22:37:39.911Z,14.90
2019-03-26T22:40:09.793Z,17.77
2019-03-26T22:42:39.153Z,13.40
2019-03-26T22:45:10.019Z,11.05
2019-03-26T22:47:40.226Z,17.65
2019-03-26T22:50:12.213Z,16.60
2019-03-26T22:52:41.488Z,16.23
2019-03-26T22:55:11.601Z,12.85
2019-03-26T22:57:41.376Z,14.65
2019-03-26T23:00:17.130Z,17.17
2019-03-26T23:02:46.476Z,13.72
2019-03-26T23:05:17.969Z,16.30
2019-03-26T23:07:47.236Z,14.50
2019-03-26T23:10:17.422Z,17.60
2019-03-26T23:12:46.694Z,12.00
2019-03-26T23:15:22.830Z,14.95
2019-03-26T23:17:52.169Z,15.10
2019-03-26T23:20:21.518Z,13.15
2019-03-26T23:22:50.854Z,14.10
2019-03-26T23:25:20.130Z,13.28
2019-03-26T23:27:49.399Z,12.63
2019-03-26T23:30:19.629Z,13.43
2019-03-26T23:32:48.921Z,10.72
2019-03-26T23:35:18.182Z,15.75
2019-03-26T23:37:47.452Z,10.38
2019-03-26T23:40:16.971Z,11.90
2019-03-26T23:42:46.503Z,12.28
2019-03-26T23:45:16.117Z,14.43
2019-03-26T23:47:45.392Z,12.30
2019-03-26T23:50:16.044Z,15.35
2019-03-26T23:52:45.316Z,13.68
2019-03-26T23:55:14.663Z,14.18
2019-03-26T23:57:43.936Z,13.48
